Time;durP1;ratioP1;P1;durP2;ratioP2;P2;SDS_P1;SDS_P2;PMS_P1;PMS_P2;Temp;Humidity;BMP_temperature;BMP_pressure;BME280_temperature;BME280_humidity;BME280_pressure;Samples;Min_cycle;Max_cycle;Signal;HPM_P1;HPM_P2
2022/02/17 00:01:11;;;;;;;2.20;0.70;;;12.80;1.00;;;;;;6291726;22;20416;-87
2022/02/17 00:03:38;;;;;;;1.30;0.60;;;12.90;1.00;;;;;;6293684;22;20372;-86
2022/02/17 00:06:05;;;;;;;1.30;0.63;;;12.90;1.00;;;;;;6292213;22;20462;-87
2022/02/17 00:08:32;;;;;;;1.83;0.70;;;13.00;1.00;;;;;;6264903;22;20481;-86
2022/02/17 00:10:59;;;;;;;1.70;0.60;;;13.00;1.00;;;;;;6288886;22;20413;-87
2022/02/17 00:13:26;;;;;;;3.90;0.80;;;13.00;1.00;;;;;;6255544;22;20396;-86
2022/02/17 00:15:53;;;;;;;1.60;0.70;;;13.10;1.00;;;;;;6280563;22;21203;-86
2022/02/17 00:18:22;;;;;;;2.13;0.80;;;13.10;1.00;;;;;;6253268;22;20459;-87
2022/02/17 00:20:49;;;;;;;1.60;0.60;;;13.10;1.00;;;;;;6254819;22;20482;-87
2022/02/17 00:23:16;;;;;;;1.60;0.50;;;13.20;1.00;;;;;;6286059;22;20387;-86
2022/02/17 00:25:43;;;;;;;2.30;0.80;;;13.20;1.00;;;;;;6294228;22;20389;-87
2022/02/17 00:28:10;;;;;;;1.30;0.50;;;13.20;1.00;;;;;;6308269;22;20383;-86
2022/02/17 00:30:37;;;;;;;1.50;0.50;;;13.10;1.00;;;;;;6311570;22;20367;-87
2022/02/17 00:33:04;;;;;;;1.53;0.50;;;12.90;1.00;;;;;;6281734;22;20395;-86
2022/02/17 00:35:33;;;;;;;2.07;0.80;;;12.70;1.00;;;;;;6304897;22;20352;-87
2022/02/17 00:38:00;;;;;;;2.00;0.50;;;12.50;1.00;;;;;;6276721;22;20435;-86
2022/02/17 00:40:28;;;;;;;1.47;0.50;;;12.50;1.00;;;;;;6298446;22;20830;-87
2022/02/17 00:42:55;;;;;;;1.73;0.60;;;12.40;1.00;;;;;;6295285;22;20423;-86
2022/02/17 00:45:24;;;;;;;1.40;0.50;;;12.50;1.00;;;;;;6265347;22;20422;-86
2022/02/17 00:47:51;;;;;;;1.60;0.60;;;12.50;1.00;;;;;;6263814;22;20376;-86
2022/02/17 00:50:18;;;;;;;1.40;0.60;;;12.60;1.00;;;;;;6289994;22;20849;-87
2022/02/17 00:52:47;;;;;;;1.40;0.50;;;12.60;1.00;;;;;;6269178;22;20367;-88
2022/02/17 00:55:14;;;;;;;1.83;1.43;;;12.50;1.00;;;;;;6287128;22;20380;-88
2022/02/17 00:57:41;;;;;;;1.50;0.60;;;12.40;1.00;;;;;;6289595;22;20423;-87
2022/02/17 01:00:09;;;;;;;1.40;0.40;;;12.30;1.00;;;;;;6280023;22;21217;-88
2022/02/17 01:02:36;;;;;;;2.10;0.60;;;12.20;1.00;;;;;;6276612;22;20501;-88
2022/02/17 01:05:03;;;;;;;3.30;0.50;;;12.20;1.00;;;;;;6278710;22;20522;-90
2022/02/17 01:10:32;;;;;;;2.40;0.70;;;12.10;1.00;;;;;;6296002;22;20368;-89
2022/02/17 01:12:59;;;;;;;1.30;0.40;;;12.00;1.00;;;;;;6274662;22;20372;-90
2022/02/17 01:15:26;;;;;;;3.37;1.10;;;12.00;1.00;;;;;;6283820;22;20395;-90
2022/02/17 01:17:54;;;;;;;2.60;1.00;;;11.70;1.00;;;;;;6254760;22;20438;-87
2022/02/17 01:20:22;;;;;;;4.50;1.00;;;10.50;1.00;;;;;;6279271;22;20446;-86
2022/02/17 01:22:49;;;;;;;2.50;0.90;;;9.70;1.00;;;;;;6250237;22;20418;-87
2022/02/17 01:25:17;;;;;;;4.10;1.15;;;9.30;1.00;;;;;;6278184;22;20415;-88
2022/02/17 01:27:45;;;;;;;4.50;1.00;;;9.20;1.00;;;;;;6249849;22;20197;-87
2022/02/17 01:30:13;;;;;;;2.05;0.90;;;9.00;1.00;;;;;;6273323;22;20423;-86
2022/02/17 01:32:40;;;;;;;2.30;0.90;;;8.90;1.00;;;;;;6274765;22;20199;-88
2022/02/17 01:35:08;;;;;;;5.13;1.02;;;8.80;1.00;;;;;;6274765;22;20397;-88
2022/02/17 01:37:35;;;;;;;2.80;1.10;;;8.70;1.00;;;;;;6270508;22;20566;-88
2022/02/17 01:40:02;;;;;;;2.45;1.02;;;8.70;1.00;;;;;;6276264;22;20402;-87
2022/02/17 01:42:28;;;;;;;3.15;1.73;;;8.60;1.00;;;;;;6251110;22;20186;-89
2022/02/17 01:44:57;;;;;;;6.20;1.38;;;8.60;1.00;;;;;;6277679;22;20208;-87
2022/02/17 01:47:24;;;;;;;3.45;1.00;;;8.50;1.00;;;;;;6252058;22;20194;-87
2022/02/17 01:49:53;;;;;;;6.10;1.10;;;8.40;1.00;;;;;;6278523;22;20193;-88
2022/02/17 01:52:20;;;;;;;2.97;1.25;;;8.40;1.00;;;;;;6254812;22;20294;-88
2022/02/17 01:54:48;;;;;;;3.38;1.30;;;8.40;1.00;;;;;;6267418;22;20245;-87
2022/02/17 01:57:18;;;;;;;2.35;0.95;;;8.30;1.00;;;;;;6283160;22;20238;-89
2022/02/17 01:59:45;;;;;;;3.33;1.20;;;8.40;1.00;;;;;;6249407;22;20196;-88
2022/02/17 02:02:14;;;;;;;3.13;0.93;;;8.30;1.00;;;;;;6284944;22;20203;-88
2022/02/17 02:04:41;;;;;;;2.20;0.85;;;8.30;1.00;;;;;;6252550;22;20308;-88
2022/02/17 02:07:09;;;;;;;3.97;1.25;;;8.30;1.00;;;;;;6274277;22;20203;-89
2022/02/17 02:09:37;;;;;;;3.88;1.15;;;8.30;1.00;;;;;;6274398;22;20199;-87
2022/02/17 02:12:04;;;;;;;3.72;1.52;;;8.30;1.00;;;;;;6276668;22;20195;-88
2022/02/17 02:14:31;;;;;;;5.07;1.63;;;8.30;1.00;;;;;;6272381;22;20629;-89
2022/02/17 02:16:58;;;;;;;5.25;1.33;;;8.30;1.00;;;;;;6272757;22;20190;-87
2022/02/17 02:19:27;;;;;;;2.70;0.80;;;8.30;1.00;;;;;;6245757;22;20196;-86
2022/02/17 02:21:55;;;;;;;5.63;1.58;;;8.30;1.00;;;;;;6273935;22;20191;-86
2022/02/17 02:24:22;;;;;;;5.90;1.63;;;8.30;1.00;;;;;;6272130;22;20208;-87
2022/02/17 02:26:49;;;;;;;5.10;1.67;;;8.30;1.00;;;;;;6274559;22;20520;-87
2022/02/17 02:29:16;;;;;;;3.58;1.63;;;8.30;1.00;;;;;;6247649;22;20249;-87
2022/02/17 02:31:43;;;;;;;4.70;1.35;;;8.30;1.00;;;;;;6273570;22;20252;-87
2022/02/17 02:34:10;;;;;;;3.15;1.50;;;8.30;1.00;;;;;;6248343;22;20221;-87
2022/02/17 02:36:37;;;;;;;2.47;1.60;;;8.20;1.00;;;;;;6257989;22;20193;-87
2022/02/17 02:39:05;;;;;;;5.10;1.70;;;8.20;1.00;;;;;;6300828;22;20204;-87
2022/02/17 02:41:32;;;;;;;7.97;1.57;;;8.20;1.00;;;;;;6299875;22;20181;-86
2022/02/17 02:44:00;;;;;;;4.15;1.98;;;8.20;1.00;;;;;;6284557;22;20408;-86
2022/02/17 02:46:27;;;;;;;4.85;1.45;;;8.20;1.00;;;;;;6271804;22;20190;-86
2022/02/17 02:48:54;;;;;;;5.28;1.98;;;8.20;1.00;;;;;;6247953;22;20195;-87
2022/02/17 02:51:21;;;;;;;8.13;1.92;;;8.20;1.00;;;;;;6274548;22;20916;-86
2022/02/17 02:53:48;;;;;;;7.30;2.55;;;8.20;1.00;;;;;;6273231;22;20194;-87
2022/02/17 02:56:16;;;;;;;4.63;1.90;;;8.20;1.00;;;;;;6287330;22;20185;-87
2022/02/17 02:58:43;;;;;;;5.75;1.48;;;8.20;1.00;;;;;;6273103;22;20285;-86
2022/02/17 03:01:10;;;;;;;7.10;2.65;;;8.30;1.00;;;;;;6272410;22;20201;-86
2022/02/17 03:03:37;;;;;;;8.15;2.15;;;8.30;1.00;;;;;;6272954;22;20208;-86
2022/02/17 03:06:04;;;;;;;6.00;1.75;;;8.30;1.00;;;;;;6272668;22;20195;-87
2022/02/17 03:08:31;;;;;;;6.18;2.05;;;8.40;1.00;;;;;;6278259;22;20223;-87
2022/02/17 03:10:58;;;;;;;8.68;2.90;;;8.40;1.00;;;;;;6283905;22;20247;-87
2022/02/17 03:13:26;;;;;;;5.10;1.77;;;8.40;1.00;;;;;;6246631;22;20221;-87
2022/02/17 03:15:53;;;;;;;9.93;2.47;;;8.40;1.00;;;;;;6274381;22;20198;-87
2022/02/17 03:18:19;;;;;;;4.82;1.70;;;8.50;1.00;;;;;;6272488;22;20204;-87
2022/02/17 03:20:46;;;;;;;5.45;2.00;;;8.50;1.00;;;;;;6274430;22;20269;-87
2022/02/17 03:23:13;;;;;;;5.77;1.67;;;8.50;1.00;;;;;;6275233;22;20213;-87
2022/02/17 03:25:40;;;;;;;6.47;2.17;;;8.60;1.00;;;;;;6283080;22;20427;-87
2022/02/17 03:28:07;;;;;;;5.03;1.77;;;8.60;1.00;;;;;;6251996;22;20184;-87
2022/02/17 03:30:35;;;;;;;6.23;1.73;;;8.60;1.00;;;;;;6277756;22;20280;-86
2022/02/17 03:33:02;;;;;;;6.33;1.40;;;8.70;1.00;;;;;;6276519;22;20428;-87
2022/02/17 03:35:29;;;;;;;8.53;1.63;;;8.70;1.00;;;;;;6278275;22;20481;-87
2022/02/17 03:37:56;;;;;;;7.03;1.90;;;8.70;1.00;;;;;;6277581;22;20424;-87
2022/02/17 03:40:23;;;;;;;4.65;1.60;;;8.80;1.00;;;;;;6277506;22;20197;-88
2022/02/17 03:42:50;;;;;;;4.35;1.98;;;8.80;1.00;;;;;;6277128;22;20296;-87
2022/02/17 03:45:17;;;;;;;5.10;1.93;;;8.90;1.00;;;;;;6251419;22;20200;-87
2022/02/17 03:47:45;;;;;;;3.30;1.20;;;8.90;1.00;;;;;;6286924;22;20396;-87
2022/02/17 03:50:12;;;;;;;4.97;2.10;;;8.90;1.00;;;;;;6267751;22;20417;-85
2022/02/17 03:52:41;;;;;;;5.23;1.57;;;9.00;1.00;;;;;;6306911;22;20379;-87
2022/02/17 03:55:10;;;;;;;4.75;1.25;;;9.00;1.00;;;;;;6303907;22;20394;-85
2022/02/17 03:57:36;;;;;;;5.85;1.85;;;9.00;1.00;;;;;;6303897;22;20189;-87
2022/02/17 04:00:04;;;;;;;4.47;2.00;;;9.10;1.00;;;;;;6301502;22;20195;-87
2022/02/17 04:02:31;;;;;;;5.13;1.50;;;9.10;1.00;;;;;;6294784;22;20200;-87
2022/02/17 04:04:59;;;;;;;3.40;1.30;;;9.10;1.00;;;;;;6278688;22;20408;-86
2022/02/17 04:07:26;;;;;;;4.75;1.50;;;9.20;1.00;;;;;;6279023;22;20189;-87
2022/02/17 04:09:52;;;;;;;5.60;1.83;;;9.20;1.00;;;;;;6280077;22;20193;-86
2022/02/17 04:12:19;;;;;;;6.87;2.37;;;9.20;1.00;;;;;;6288523;22;20419;-87
2022/02/17 04:14:46;;;;;;;7.32;2.05;;;9.30;1.00;;;;;;6279351;22;20962;-86
2022/02/17 04:17:13;;;;;;;5.23;2.50;;;9.40;1.00;;;;;;6277777;22;20246;-87
2022/02/17 04:19:39;;;;;;;6.23;2.20;;;9.50;1.00;;;;;;6277352;22;20428;-85
2022/02/17 04:22:09;;;;;;;7.37;2.23;;;9.60;1.00;;;;;;6280219;22;20406;-87
2022/02/17 04:24:36;;;;;;;5.73;2.13;;;9.70;1.00;;;;;;6278928;22;20807;-86
2022/02/17 04:27:02;;;;;;;4.90;1.63;;;9.80;1.00;;;;;;6277501;22;20953;-88
2022/02/17 04:29:30;;;;;;;5.30;1.73;;;9.80;1.00;;;;;;6282452;22;20429;-87
2022/02/17 04:31:56;;;;;;;4.73;1.57;;;9.90;1.00;;;;;;6301063;22;20425;-87
2022/02/17 04:34:23;;;;;;;7.33;1.90;;;9.90;1.00;;;;;;6266951;22;20419;-86
2022/02/17 04:36:50;;;;;;;4.50;1.60;;;9.90;1.00;;;;;;6278881;22;20442;-87
2022/02/17 04:39:21;;;;;;;5.57;2.00;;;9.70;1.00;;;;;;6252341;22;20475;-87
2022/02/17 04:44:32;;;;;;;4.23;2.10;;;9.30;1.00;;;;;;6284081;22;20394;-86
2022/02/17 04:46:59;;;;;;;4.72;1.15;;;9.20;1.00;;;;;;6276816;22;20500;-86
2022/02/17 04:49:26;;;;;;;3.93;1.23;;;9.00;1.00;;;;;;6278772;22;20198;-86
2022/02/17 04:51:53;;;;;;;3.97;1.13;;;8.80;1.00;;;;;;6258641;22;20435;-85
2022/02/17 04:54:21;;;;;;;5.00;1.00;;;8.60;1.00;;;;;;6280180;22;20401;-86
2022/02/17 04:56:48;;;;;;;1.92;0.90;;;8.50;1.00;;;;;;6276845;22;20189;-84
2022/02/17 04:59:15;;;;;;;2.38;0.80;;;8.20;1.00;;;;;;6276840;22;20206;-86
2022/02/17 05:01:41;;;;;;;3.20;1.27;;;8.10;1.00;;;;;;6272455;22;20200;-86
2022/02/17 05:04:09;;;;;;;3.45;1.65;;;8.00;1.00;;;;;;6273592;22;20192;-86
2022/02/17 05:06:35;;;;;;;2.97;0.82;;;8.00;1.00;;;;;;6279171;22;20204;-86
2022/02/17 05:09:02;;;;;;;2.00;0.95;;;8.00;1.00;;;;;;6279132;22;20255;-86
2022/02/17 05:11:30;;;;;;;5.72;1.20;;;8.00;1.00;;;;;;6248771;22;20184;-85
2022/02/17 05:13:57;;;;;;;3.50;0.85;;;8.10;1.00;;;;;;6283380;22;20244;-85
2022/02/17 05:16:24;;;;;;;3.72;1.17;;;8.20;1.00;;;;;;6282852;22;20221;-86
2022/02/17 05:18:51;;;;;;;2.33;1.10;;;8.30;1.00;;;;;;6280253;22;20247;-86
2022/02/17 05:21:18;;;;;;;2.28;1.00;;;8.40;1.00;;;;;;6283269;22;20430;-87
2022/02/17 05:23:45;;;;;;;4.78;1.27;;;8.50;1.00;;;;;;6284443;22;20278;-86
2022/02/17 05:26:12;;;;;;;5.00;1.20;;;8.40;1.00;;;;;;6283610;22;20281;-87
2022/02/17 05:28:40;;;;;;;3.72;1.33;;;8.40;1.00;;;;;;6305196;22;20183;-87
2022/02/17 05:31:07;;;;;;;3.90;1.30;;;8.40;1.00;;;;;;6306620;22;20159;-86
2022/02/17 05:33:34;;;;;;;5.97;1.55;;;8.40;1.00;;;;;;6304859;22;20194;-85
2022/02/17 05:36:00;;;;;;;6.55;2.35;;;8.40;1.00;;;;;;6303359;22;20212;-85
2022/02/17 05:38:27;;;;;;;4.33;1.30;;;8.30;1.00;;;;;;6281056;22;20231;-87
2022/02/17 05:40:54;;;;;;;5.93;2.22;;;8.30;1.00;;;;;;6277589;22;20431;-80
2022/02/17 05:43:20;;;;;;;5.28;2.00;;;8.20;1.00;;;;;;6280375;22;20186;-79
2022/02/17 05:45:48;;;;;;;4.43;1.83;;;8.20;1.00;;;;;;6252801;22;20193;-80
2022/02/17 05:48:15;;;;;;;4.70;2.53;;;8.20;1.00;;;;;;6272668;22;20204;-83
2022/02/17 05:50:42;;;;;;;4.95;1.67;;;8.20;1.00;;;;;;6267161;22;20237;-79
2022/02/17 05:53:09;;;;;;;6.70;1.88;;;8.20;1.00;;;;;;6272346;22;20188;-79
2022/02/17 05:55:36;;;;;;;12.10;3.40;;;8.10;1.00;;;;;;6274862;22;20255;-79
2022/02/17 05:58:02;;;;;;;5.13;1.85;;;8.10;1.00;;;;;;6274463;22;20189;-80
2022/02/17 06:00:29;;;;;;;3.85;2.05;;;8.10;1.00;;;;;;6274969;22;20235;-80
2022/02/17 06:02:57;;;;;;;6.75;2.70;;;8.10;1.00;;;;;;6272979;22;20229;-80
2022/02/17 06:05:24;;;;;;;4.90;1.88;;;8.10;1.00;;;;;;6275995;22;20198;-81
2022/02/17 06:07:52;;;;;;;13.38;2.50;;;8.20;1.00;;;;;;6272828;22;20208;-80
2022/02/17 06:10:18;;;;;;;8.93;1.95;;;8.40;1.00;;;;;;6270666;22;20197;-81
2022/02/17 06:12:46;;;;;;;6.07;2.40;;;8.50;1.00;;;;;;6275086;22;20193;-80
2022/02/17 06:15:16;;;;;;;8.50;2.63;;;8.50;1.00;;;;;;6280810;22;20191;-83
2022/02/17 06:17:44;;;;;;;5.25;2.42;;;8.50;1.00;;;;;;6290126;22;20184;-88
2022/02/17 06:20:14;;;;;;;6.68;2.67;;;8.50;1.00;;;;;;6251553;22;20524;-88
2022/02/17 06:22:46;;;;;;;8.43;2.10;;;8.60;1.00;;;;;;6282308;22;20207;-87
2022/02/17 06:25:15;;;;;;;9.30;2.50;;;8.60;1.00;;;;;;6281959;22;20253;-89
2022/02/17 06:27:42;;;;;;;4.65;2.10;;;8.80;1.00;;;;;;6283939;22;20583;-86
2022/02/17 06:30:13;;;;;;;4.70;2.35;;;9.00;1.00;;;;;;6281295;22;20901;-86
2022/02/17 06:32:46;;;;;;;6.72;2.03;;;9.00;1.00;;;;;;6280789;22;20200;-84
2022/02/17 06:35:17;;;;;;;8.50;2.50;;;9.10;1.00;;;;;;6282120;22;20840;-85
2022/02/17 06:37:44;;;;;;;10.32;2.60;;;9.10;1.00;;;;;;6280392;22;21013;-86
2022/02/17 06:40:12;;;;;;;7.72;2.22;;;9.10;1.00;;;;;;6282155;22;20206;-85
2022/02/17 06:42:39;;;;;;;4.10;1.98;;;9.10;1.00;;;;;;6284030;22;20679;-86
2022/02/17 06:45:07;;;;;;;4.93;2.03;;;9.10;1.00;;;;;;6284140;22;20895;-85
2022/02/17 06:47:34;;;;;;;8.02;2.25;;;9.10;1.00;;;;;;6251463;22;20203;-85
2022/02/17 06:50:01;;;;;;;5.67;2.23;;;9.10;1.00;;;;;;6283637;22;21330;-85
2022/02/17 06:52:30;;;;;;;11.73;2.78;;;9.10;1.00;;;;;;6282514;22;20441;-85
2022/02/17 06:54:57;;;;;;;5.72;2.85;;;9.10;1.00;;;;;;6282864;22;20923;-86
2022/02/17 06:57:25;;;;;;;8.82;3.25;;;9.10;1.00;;;;;;6280387;22;20200;-85
2022/02/17 06:59:54;;;;;;;9.00;2.17;;;9.10;1.00;;;;;;6282282;22;21288;-87
2022/02/17 07:02:24;;;;;;;10.93;3.30;;;9.10;1.00;;;;;;6284678;22;20197;-80
2022/02/17 07:04:51;;;;;;;9.95;2.58;;;9.20;1.00;;;;;;6276884;22;20194;-79
2022/02/17 07:07:19;;;;;;;9.35;3.47;;;9.20;1.00;;;;;;6280326;22;20195;-78
2022/02/17 07:09:48;;;;;;;7.57;2.90;;;9.20;1.00;;;;;;6278211;22;20191;-81
2022/02/17 07:12:15;;;;;;;5.28;2.40;;;9.30;1.00;;;;;;6255264;22;20253;-80
2022/02/17 07:14:42;;;;;;;4.57;2.28;;;9.30;1.00;;;;;;6248716;22;20189;-81
2022/02/17 07:17:09;;;;;;;4.57;2.38;;;9.30;1.00;;;;;;6278326;22;20388;-81
2022/02/17 07:19:36;;;;;;;7.18;2.38;;;9.30;1.00;;;;;;6276874;22;20235;-81
2022/02/17 07:22:04;;;;;;;9.60;2.55;;;9.40;1.00;;;;;;6277796;22;20264;-80
2022/02/17 07:24:31;;;;;;;5.20;2.08;;;9.50;1.00;;;;;;6272809;22;20194;-79
2022/02/17 07:26:59;;;;;;;6.85;2.00;;;9.60;1.00;;;;;;6281304;22;20198;-81
2022/02/17 07:29:26;;;;;;;6.47;2.47;;;9.70;1.00;;;;;;6275591;22;20218;-80
2022/02/17 07:31:52;;;;;;;8.67;2.50;;;9.70;1.00;;;;;;6278673;22;20201;-81
2022/02/17 07:34:20;;;;;;;6.15;2.20;;;9.60;1.00;;;;;;6272960;22;20411;-81
2022/02/17 07:36:47;;;;;;;8.93;2.73;;;9.70;1.00;;;;;;6274375;22;20212;-80
2022/02/17 07:39:15;;;;;;;8.57;3.00;;;9.70;1.00;;;;;;6274806;22;20391;-79
2022/02/17 07:41:42;;;;;;;10.10;2.50;;;9.80;1.00;;;;;;6276835;22;21217;-78
2022/02/17 07:44:10;;;;;;;10.30;6.43;;;9.80;1.00;;;;;;6273591;22;20405;-81
2022/02/17 07:46:37;;;;;;;7.20;2.67;;;9.80;1.00;;;;;;6275307;22;20481;-78
2022/02/17 07:49:04;;;;;;;10.13;3.00;;;9.80;1.00;;;;;;6289545;22;20378;-80
2022/02/17 07:51:31;;;;;;;10.53;2.80;;;9.80;1.00;;;;;;6282394;22;20462;-81
2022/02/17 07:53:59;;;;;;;8.70;3.10;;;9.90;1.00;;;;;;6282361;22;20387;-81
2022/02/17 07:56:26;;;;;;;6.30;2.20;;;10.00;1.00;;;;;;6281158;22;20364;-81
2022/02/17 07:58:53;;;;;;;10.00;2.40;;;10.10;1.00;;;;;;6280276;22;20393;-80
2022/02/17 08:01:21;;;;;;;10.67;2.33;;;10.30;1.00;;;;;;6273433;22;20388;-77
2022/02/17 08:03:48;;;;;;;7.13;2.37;;;10.40;1.00;;;;;;6271146;22;20437;-78
2022/02/17 08:06:16;;;;;;;9.60;3.23;;;10.50;1.00;;;;;;6241787;22;21280;-78
2022/02/17 08:08:48;;;;;;;11.33;3.20;;;10.50;1.00;;;;;;6270495;22;20404;-78
2022/02/17 08:11:15;;;;;;;6.53;2.20;;;10.50;1.00;;;;;;6268044;22;20974;-78
2022/02/17 08:13:42;;;;;;;11.13;2.67;;;10.40;1.00;;;;;;6272667;22;20426;-78
2022/02/17 08:16:09;;;;;;;9.57;2.20;;;10.40;1.00;;;;;;6273723;22;20798;-78
2022/02/17 08:18:38;;;;;;;6.35;3.10;;;10.30;1.00;;;;;;6274950;22;20399;-78
2022/02/17 08:21:04;;;;;;;6.90;2.67;;;10.30;1.00;;;;;;6269510;22;20200;-78
2022/02/17 08:23:33;;;;;;;9.13;2.77;;;10.30;1.00;;;;;;6274432;22;20796;-79
2022/02/17 08:26:01;;;;;;;5.77;2.93;;;10.40;1.00;;;;;;6275121;22;20370;-77
2022/02/17 08:28:28;;;;;;;11.23;2.37;;;10.30;1.00;;;;;;6254695;22;20928;-79
2022/02/17 08:30:55;;;;;;;9.20;3.20;;;10.40;1.00;;;;;;6280454;22;21020;-78
2022/02/17 08:33:22;;;;;;;7.60;2.27;;;10.40;1.00;;;;;;6291513;22;20371;-79
2022/02/17 08:35:51;;;;;;;9.00;2.33;;;10.40;1.00;;;;;;6291038;22;20442;-79
2022/02/17 08:38:18;;;;;;;7.70;2.30;;;10.40;1.00;;;;;;6292103;22;20396;-79
2022/02/17 08:40:45;;;;;;;7.63;2.43;;;10.40;1.00;;;;;;6292465;22;20395;-79
2022/02/17 08:43:13;;;;;;;7.30;2.37;;;10.40;1.00;;;;;;6289069;22;20430;-77
2022/02/17 08:45:42;;;;;;;5.87;2.30;;;10.40;1.00;;;;;;6286276;22;20363;-79
2022/02/17 08:48:10;;;;;;;7.03;1.90;;;10.40;1.00;;;;;;6287007;22;21546;-81
2022/02/17 08:50:39;;;;;;;7.07;2.70;;;10.50;1.00;;;;;;6289077;22;20371;-81
2022/02/17 08:53:08;;;;;;;7.00;2.10;;;10.40;1.00;;;;;;6280198;22;20441;-84
2022/02/17 08:55:35;;;;;;;6.33;2.13;;;10.40;1.00;;;;;;6288275;22;20404;-84
2022/02/17 08:58:02;;;;;;;7.00;2.03;;;10.50;1.00;;;;;;6285075;22;20380;-83
2022/02/17 09:00:29;;;;;;;7.17;2.00;;;10.50;1.00;;;;;;6282587;22;20422;-82
2022/02/17 09:02:56;;;;;;;7.28;1.75;;;10.50;1.00;;;;;;6249415;22;20417;-81
2022/02/17 09:09:26;;;;;;;8.20;1.70;;;10.50;1.00;;;;;;6207708;22;20416;-87
2022/02/17 09:12:13;;;;;;;9.50;1.97;;;10.50;1.00;;;;;;6263664;22;20419;-82
2022/02/17 09:14:40;;;;;;;6.40;2.20;;;10.60;1.00;;;;;;6277240;22;20380;-83
2022/02/17 09:17:07;;;;;;;4.57;1.70;;;10.70;1.00;;;;;;6279776;22;20424;-82
2022/02/17 09:19:36;;;;;;;5.30;1.90;;;10.60;1.00;;;;;;6280491;22;20529;-84
2022/02/17 09:22:03;;;;;;;7.00;2.37;;;10.60;1.00;;;;;;6255501;22;20487;-85
2022/02/17 09:24:31;;;;;;;11.33;2.67;;;10.50;1.00;;;;;;6292154;22;20391;-83
2022/02/17 09:26:58;;;;;;;4.60;1.70;;;10.30;1.00;;;;;;6278929;22;20431;-85
2022/02/17 09:29:25;;;;;;;6.60;2.10;;;10.30;1.00;;;;;;6256208;22;20425;-83
2022/02/17 09:31:52;;;;;;;7.00;2.30;;;10.30;1.00;;;;;;6281610;22;20375;-83
2022/02/17 09:34:18;;;;;;;3.53;1.70;;;10.30;1.00;;;;;;6249815;22;20407;-81
2022/02/17 09:36:55;;;;;;;5.10;2.13;;;10.20;1.00;;;;;;6285370;22;20199;-88
2022/02/17 09:39:29;;;;;;;6.67;2.10;;;10.20;1.00;;;;;;6290591;22;20451;-87
2022/02/17 09:41:58;;;;;;;8.20;2.33;;;10.30;1.00;;;;;;6290254;22;20364;-87
2022/02/17 09:44:29;;;;;;;6.50;1.93;;;10.30;1.00;;;;;;6262300;22;20383;-86
2022/02/17 09:46:56;;;;;;;5.50;2.20;;;10.30;1.00;;;;;;6269421;22;20434;-81
2022/02/17 09:49:23;;;;;;;7.70;2.33;;;10.30;1.00;;;;;;6290531;22;20413;-83
2022/02/17 09:51:52;;;;;;;5.63;2.00;;;10.30;1.00;;;;;;6279745;22;20407;-83
2022/02/17 09:54:20;;;;;;;4.70;2.10;;;10.30;1.00;;;;;;6283636;22;20359;-83
2022/02/17 09:56:47;;;;;;;4.17;1.63;;;10.20;1.00;;;;;;6282979;22;20403;-84
2022/02/17 09:59:16;;;;;;;2.90;1.27;;;10.00;1.00;;;;;;6276781;22;20417;-82
2022/02/17 10:01:53;;;;;;;3.70;1.70;;;9.80;1.00;;;;;;6274442;22;20603;-82
2022/02/17 10:04:22;;;;;;;6.28;1.65;;;9.50;1.00;;;;;;6246025;22;21420;-83
2022/02/17 10:06:51;;;;;;;4.32;1.45;;;9.40;1.00;;;;;;6282695;22;20202;-81
2022/02/17 10:09:19;;;;;;;3.70;1.40;;;9.40;1.00;;;;;;6255391;22;20221;-83
2022/02/17 10:11:48;;;;;;;3.65;1.63;;;9.40;1.00;;;;;;6278950;22;20875;-83
2022/02/17 10:14:18;;;;;;;5.85;1.60;;;9.40;1.00;;;;;;6285465;22;20981;-82
2022/02/17 10:16:56;;;;;;;7.13;1.60;;;9.40;1.00;;;;;;6258994;22;21732;-81
2022/02/17 10:19:25;;;;;;;5.20;1.73;;;9.60;1.00;;;;;;6280739;22;20190;-83
2022/02/17 10:22:02;;;;;;;6.05;3.38;;;9.60;1.00;;;;;;6278996;22;20217;-83
2022/02/17 10:24:48;;;;;;;5.35;1.63;;;9.60;1.00;;;;;;6279195;22;20203;-82
2022/02/17 10:27:16;;;;;;;5.35;2.80;;;9.60;1.00;;;;;;6251340;22;20231;-82
2022/02/17 10:30:01;;;;;;;11.73;2.78;;;9.60;1.00;;;;;;6275832;22;20232;-83
2022/02/17 10:32:28;;;;;;;10.82;7.03;;;9.50;1.00;;;;;;6270262;22;20715;-81
2022/02/17 10:35:09;;;;;;;6.07;2.05;;;9.60;1.00;;;;;;6272557;22;20197;-81
2022/02/17 10:37:47;;;;;;;5.77;2.40;;;9.60;1.00;;;;;;6285212;22;20199;-86
2022/02/17 10:40:19;;;;;;;10.85;3.17;;;9.70;1.00;;;;;;6302152;22;20391;-85
2022/02/17 10:43:02;;;;;;;5.68;2.15;;;9.70;1.00;;;;;;6308579;22;20188;-88
2022/02/17 10:45:30;;;;;;;8.13;1.60;;;9.70;1.00;;;;;;6306743;22;20657;-86
2022/02/17 10:48:11;;;;;;;6.00;2.07;;;9.80;1.00;;;;;;6299748;22;20215;-85
2022/02/17 10:50:38;;;;;;;7.20;2.23;;;9.90;1.00;;;;;;6298143;22;20347;-85
2022/02/17 10:53:19;;;;;;;4.80;1.77;;;10.00;1.00;;;;;;6260554;22;20469;-82
2022/02/17 10:55:54;;;;;;;6.73;2.70;;;9.90;1.00;;;;;;6250936;22;20196;-82
2022/02/17 10:58:27;;;;;;;7.83;1.87;;;10.00;1.00;;;;;;6266779;22;20411;-81
2022/02/17 11:00:56;;;;;;;5.20;1.60;;;10.00;1.00;;;;;;6280244;22;20387;-81
2022/02/17 11:03:23;;;;;;;5.25;2.15;;;9.90;1.00;;;;;;6277498;22;20404;-81
2022/02/17 11:05:53;;;;;;;4.68;1.20;;;9.80;1.00;;;;;;6274848;22;20198;-82
2022/02/17 11:08:20;;;;;;;6.07;1.50;;;9.80;1.00;;;;;;6276495;22;20191;-83
2022/02/17 11:10:47;;;;;;;5.90;1.40;;;9.90;1.00;;;;;;6276310;22;20395;-84
2022/02/17 11:13:19;;;;;;;6.17;1.40;;;10.00;1.00;;;;;;6278142;22;20429;-85
2022/02/17 11:15:46;;;;;;;7.25;2.10;;;10.10;1.00;;;;;;6282139;22;20374;-85
2022/02/17 11:18:16;;;;;;;4.63;1.50;;;10.10;1.00;;;;;;6253611;22;20250;-85
2022/02/17 11:20:43;;;;;;;7.37;2.13;;;10.30;1.00;;;;;;6283410;22;20404;-83
2022/02/17 11:23:11;;;;;;;4.20;1.43;;;10.30;1.00;;;;;;6285969;22;20386;-85
2022/02/17 11:25:40;;;;;;;5.57;1.87;;;10.20;1.00;;;;;;6278311;22;20386;-84
2022/02/17 11:28:09;;;;;;;8.33;1.60;;;10.20;1.00;;;;;;6283517;22;20387;-84
2022/02/17 11:30:37;;;;;;;7.13;2.13;;;10.10;1.00;;;;;;6281978;22;20352;-86
2022/02/17 11:33:32;;;;;;;6.47;2.07;;;10.00;1.00;;;;;;6262603;22;20439;-87
2022/02/17 11:36:30;;;;;;;6.03;1.60;;;9.80;1.00;;;;;;6267040;22;20400;-83
2022/02/17 11:39:03;;;;;;;4.18;1.50;;;9.40;1.00;;;;;;6263450;22;20199;-81
2022/02/17 11:41:34;;;;;;;7.65;1.70;;;9.10;1.00;;;;;;6282390;22;20581;-81
2022/02/17 11:44:16;;;;;;;4.68;1.80;;;9.00;1.00;;;;;;6281416;22;20192;-82
2022/02/17 11:46:51;;;;;;;3.65;1.52;;;8.90;1.00;;;;;;6275394;22;20190;-80
2022/02/17 11:49:49;;;;;;;4.45;1.38;;;8.80;1.00;;;;;;6276166;22;20194;-81
2022/02/17 11:52:19;;;;;;;6.80;1.45;;;8.90;1.00;;;;;;6251450;22;20197;-83
2022/02/17 11:55:20;;;;;;;3.10;1.60;;;9.10;1.00;;;;;;6279096;22;20188;-83
2022/02/17 11:57:47;;;;;;;4.22;1.77;;;9.40;1.00;;;;;;6278504;22;20187;-84
2022/02/17 12:00:31;;;;;;;7.65;1.70;;;9.50;1.00;;;;;;6276313;22;20251;-82
2022/02/17 12:03:00;;;;;;;5.40;1.55;;;9.50;1.00;;;;;;6273909;22;20479;-81
2022/02/17 12:05:29;;;;;;;4.67;1.43;;;9.40;1.00;;;;;;6270833;22;20226;-81
2022/02/17 12:08:24;;;;;;;3.42;1.40;;;9.40;1.00;;;;;;6245063;22;20395;-82
2022/02/17 12:10:55;;;;;;;2.78;1.15;;;9.40;1.00;;;;;;6245270;22;21377;-82
2022/02/17 12:13:27;;;;;;;4.93;1.40;;;9.40;1.00;;;;;;6245684;22;20231;-81
2022/02/17 12:15:54;;;;;;;2.78;1.50;;;9.50;1.00;;;;;;6276442;22;20418;-83
2022/02/17 12:18:21;;;;;;;4.00;1.15;;;9.50;1.00;;;;;;6247852;22;20193;-82
2022/02/17 12:20:50;;;;;;;2.88;1.55;;;9.50;1.00;;;;;;6251142;22;20535;-81
2022/02/17 12:23:18;;;;;;;3.03;1.03;;;9.50;1.00;;;;;;6249367;22;20961;-79
2022/02/17 12:25:46;;;;;;;3.45;0.90;;;9.60;1.00;;;;;;6273687;22;20458;-79
2022/02/17 12:28:14;;;;;;;3.85;1.10;;;9.60;1.00;;;;;;6277950;22;20199;-79
2022/02/17 12:30:44;;;;;;;4.33;1.80;;;9.70;1.00;;;;;;6262558;22;20189;-79
2022/02/17 12:33:14;;;;;;;4.72;1.27;;;9.70;1.00;;;;;;6283298;22;20455;-80
2022/02/17 12:35:57;;;;;;;4.38;1.33;;;9.60;1.00;;;;;;6274646;22;20204;-80
2022/02/17 12:38:25;;;;;;;4.22;1.20;;;9.60;1.00;;;;;;6274970;22;20236;-80
2022/02/17 12:40:53;;;;;;;3.80;1.73;;;9.50;1.00;;;;;;6269703;22;20200;-78
2022/02/17 12:43:29;;;;;;;3.70;1.30;;;9.30;1.00;;;;;;6272316;22;21434;-79
2022/02/17 12:45:56;;;;;;;2.20;1.27;;;9.10;1.00;;;;;;6273025;22;20215;-79
2022/02/17 12:48:23;;;;;;;4.20;1.52;;;8.80;1.00;;;;;;6269273;22;20266;-80
2022/02/17 12:50:52;;;;;;;2.67;0.90;;;8.60;1.00;;;;;;6273958;22;20224;-78
2022/02/17 12:53:18;;;;;;;2.90;0.70;;;8.50;1.00;;;;;;6243710;22;20211;-81
2022/02/17 12:55:47;;;;;;;4.47;1.25;;;8.30;1.00;;;;;;6248618;22;20226;-82
2022/02/17 12:58:26;;;;;;;2.15;0.90;;;8.20;1.00;;;;;;6246853;22;20197;-80
2022/02/17 13:00:53;;;;;;;1.60;0.70;;;8.20;1.00;;;;;;6274614;22;20190;-81
2022/02/17 13:03:34;;;;;;;4.15;1.00;;;8.10;1.00;;;;;;6272493;22;20193;-81
2022/02/17 13:06:19;;;;;;;2.75;0.80;;;8.00;1.00;;;;;;6275728;22;20749;-80
2022/02/17 13:08:47;;;;;;;1.88;0.82;;;8.00;1.00;;;;;;6275182;22;20193;-83
2022/02/17 13:11:16;;;;;;;2.10;0.80;;;8.00;1.00;;;;;;6243105;22;20196;-82
2022/02/17 13:13:43;;;;;;;4.40;0.80;;;8.00;1.00;;;;;;6251568;22;20267;-83
2022/02/17 13:16:12;;;;;;;2.50;1.20;;;8.10;1.00;;;;;;6273477;22;20193;-84
2022/02/17 13:18:42;;;;;;;3.90;1.10;;;8.20;1.00;;;;;;6283283;22;20185;-84
2022/02/17 13:21:12;;;;;;;2.33;1.17;;;8.30;1.00;;;;;;6263462;22;21046;-84